Time;durP1;ratioP1;P1;durP2;ratioP2;P2;SDS_P1;SDS_P2;PMS_P1;PMS_P2;Temp;Humidity;BMP_temperature;BMP_pressure;BME280_temperature;BME280_humidity;BME280_pressure;Samples;Min_cycle;Max_cycle;Signal;HPM_P1;HPM_P2
2023/03/19 00:00:19;;;;;;;13.77;9.82;;;22.20;68.00;;;;;;6049544;28;89564;-70
2023/03/19 00:03:21;;;;;;;12.57;10.00;;;22.30;68.10;;;;;;6059940;28;90390;-70
2023/03/19 00:06:24;;;;;;;12.88;9.88;;;22.20;68.10;;;;;;6067560;28;89505;-71
2023/03/19 00:09:26;;;;;;;12.45;9.82;;;22.20;68.20;;;;;;6065053;28;89022;-71
2023/03/19 00:12:30;;;;;;;13.30;9.80;;;22.20;68.20;;;;;;6071887;28;89494;-71
2023/03/19 00:15:32;;;;;;;12.75;10.27;;;22.20;68.20;;;;;;6066172;28;89538;-70
2023/03/19 00:18:34;;;;;;;13.35;10.23;;;22.20;68.30;;;;;;6059852;28;89302;-71
2023/03/19 00:21:36;;;;;;;11.80;9.88;;;22.20;68.30;;;;;;6062345;28;88017;-72
2023/03/19 00:24:38;;;;;;;12.35;10.32;;;22.20;68.30;;;;;;6087303;28;89662;-70
2023/03/19 00:27:43;;;;;;;11.27;9.57;;;22.20;68.30;;;;;;6073830;28;89316;-71
2023/03/19 00:30:45;;;;;;;13.80;11.00;;;22.20;68.30;;;;;;6065301;28;88402;-70
2023/03/19 00:33:47;;;;;;;11.95;9.90;;;22.20;68.40;;;;;;6063590;28;90352;-71
2023/03/19 00:36:49;;;;;;;12.35;10.35;;;22.10;68.40;;;;;;6075538;28;89367;-71
2023/03/19 00:39:51;;;;;;;11.55;10.00;;;22.20;68.40;;;;;;6063416;28;89321;-71
2023/03/19 00:42:54;;;;;;;12.77;10.27;;;22.20;68.40;;;;;;6063347;28;89263;-71
2023/03/19 00:45:56;;;;;;;10.70;9.52;;;22.20;68.40;;;;;;6063658;28;89431;-72
2023/03/19 00:48:59;;;;;;;11.45;9.95;;;22.10;68.40;;;;;;6066297;28;89095;-71
2023/03/19 00:52:01;;;;;;;13.30;10.13;;;22.20;68.50;;;;;;6068693;28;89118;-71
2023/03/19 00:55:03;;;;;;;11.30;9.70;;;22.10;68.50;;;;;;6064451;28;88360;-71
2023/03/19 00:58:06;;;;;;;11.95;9.77;;;22.10;68.40;;;;;;6067752;28;89053;-71
2023/03/19 01:01:08;;;;;;;10.68;9.57;;;22.20;68.50;;;;;;6074999;28;89172;-70
2023/03/19 01:04:11;;;;;;;11.77;9.98;;;22.10;68.50;;;;;;6054096;28;90278;-72
2023/03/19 01:07:13;;;;;;;12.52;10.05;;;22.10;68.40;;;;;;6063375;28;88000;-70
2023/03/19 01:10:18;;;;;;;12.57;9.73;;;22.10;68.50;;;;;;6063328;28;89041;-70
2023/03/19 01:13:21;;;;;;;11.40;10.20;;;22.10;68.50;;;;;;6079962;28;89042;-70
2023/03/19 01:16:23;;;;;;;11.52;9.85;;;22.10;68.60;;;;;;6074323;28;89111;-70
2023/03/19 01:19:26;;;;;;;12.25;9.77;;;22.10;68.60;;;;;;6065431;28;89165;-71
2023/03/19 01:22:28;;;;;;;11.32;9.90;;;22.10;68.60;;;;;;6068886;28;89322;-71
2023/03/19 01:25:30;;;;;;;11.65;9.77;;;22.10;68.60;;;;;;6082238;28;88439;-72
2023/03/19 01:28:34;;;;;;;10.55;9.45;;;22.10;68.60;;;;;;6064262;28;89117;-71
2023/03/19 01:31:36;;;;;;;11.38;10.00;;;22.10;68.60;;;;;;6070733;28;89128;-71
2023/03/19 01:34:38;;;;;;;10.98;9.88;;;22.10;68.60;;;;;;6065238;28;90170;-71
2023/03/19 01:37:40;;;;;;;11.35;9.85;;;22.00;68.50;;;;;;6069712;28;89195;-70
2023/03/19 01:40:46;;;;;;;11.82;9.80;;;22.10;68.60;;;;;;6062399;28;89385;-71
2023/03/19 01:43:50;;;;;;;11.32;9.55;;;22.10;68.60;;;;;;6066932;28;89150;-70
2023/03/19 01:46:52;;;;;;;10.98;9.82;;;22.10;68.70;;;;;;6051811;28;89099;-70
2023/03/19 01:49:55;;;;;;;11.15;9.32;;;22.00;68.60;;;;;;6063248;28;89010;-70
2023/03/19 01:52:58;;;;;;;12.50;9.90;;;22.00;68.80;;;;;;6067466;28;89072;-70
2023/03/19 01:56:04;;;;;;;10.48;9.23;;;22.00;68.80;;;;;;6068910;28;87953;-71
2023/03/19 01:59:12;;;;;;;11.90;9.45;;;22.00;68.80;;;;;;6068101;28;88994;-71
2023/03/19 02:02:21;;;;;;;13.93;9.85;;;22.00;68.80;;;;;;6064460;28;89186;-70
2023/03/19 02:05:25;;;;;;;12.35;9.65;;;22.00;68.80;;;;;;6067796;28;90028;-71
2023/03/19 02:08:29;;;;;;;13.40;9.73;;;22.00;68.70;;;;;;6074492;28;89362;-71
2023/03/19 02:11:32;;;;;;;11.43;9.30;;;22.00;68.60;;;;;;6070451;28;89568;-70
2023/03/19 02:14:35;;;;;;;11.27;9.30;;;22.00;68.60;;;;;;6075355;28;89030;-71
2023/03/19 02:17:38;;;;;;;11.73;9.30;;;22.00;68.60;;;;;;6059669;28;88578;-71
2023/03/19 02:20:48;;;;;;;10.70;8.70;;;22.00;68.60;;;;;;6072183;28;89221;-70
2023/03/19 02:23:55;;;;;;;12.55;9.70;;;22.00;68.60;;;;;;6063713;28;89097;-70
2023/03/19 02:26:59;;;;;;;11.80;8.52;;;22.00;68.60;;;;;;6074293;28;87668;-71
2023/03/19 02:30:01;;;;;;;10.57;8.63;;;22.00;68.60;;;;;;6061769;28;89243;-70
2023/03/19 02:33:03;;;;;;;10.23;9.10;;;22.00;68.60;;;;;;6070242;28;89015;-70
2023/03/19 02:36:09;;;;;;;10.30;8.93;;;22.00;68.50;;;;;;6057193;28;90046;-71
2023/03/19 02:39:17;;;;;;;11.25;8.60;;;22.00;68.60;;;;;;6060407;28;89074;-70
2023/03/19 02:42:24;;;;;;;11.50;9.10;;;22.00;68.60;;;;;;6063158;28;89072;-71
2023/03/19 02:45:29;;;;;;;10.93;8.93;;;22.00;68.50;;;;;;6061163;28;88011;-70
2023/03/19 02:48:31;;;;;;;12.85;8.55;;;21.90;68.50;;;;;;6074877;28;89049;-71
2023/03/19 02:51:33;;;;;;;11.02;8.88;;;22.00;68.60;;;;;;6065447;28;89144;-71
2023/03/19 02:54:35;;;;;;;9.38;8.15;;;21.90;68.40;;;;;;6062088;28;88947;-71
2023/03/19 02:57:39;;;;;;;9.68;8.15;;;21.90;68.40;;;;;;6063271;28;88382;-71
2023/03/19 03:00:41;;;;;;;9.75;8.40;;;22.00;68.40;;;;;;6060205;28;89115;-71
2023/03/19 03:03:43;;;;;;;11.48;8.45;;;22.00;68.40;;;;;;6064601;28;89465;-71
2023/03/19 03:06:45;;;;;;;9.65;8.13;;;21.90;68.30;;;;;;6061164;28;89105;-71
2023/03/19 03:09:47;;;;;;;9.02;7.95;;;21.90;68.30;;;;;;6063682;28;89134;-71
2023/03/19 03:12:51;;;;;;;9.75;8.30;;;21.90;68.30;;;;;;6061084;28;89594;-71
2023/03/19 03:15:53;;;;;;;9.23;8.13;;;21.90;68.40;;;;;;6060414;28;89148;-71
2023/03/19 03:18:55;;;;;;;9.13;7.97;;;21.90;68.30;;;;;;6074994;28;89388;-71
2023/03/19 03:21:57;;;;;;;8.40;7.60;;;21.90;68.40;;;;;;6070594;28;89428;-71
2023/03/19 03:25:00;;;;;;;10.57;7.78;;;21.90;68.40;;;;;;6073010;28;89060;-71
2023/03/19 03:28:03;;;;;;;9.32;7.57;;;21.90;68.30;;;;;;6073841;28;87095;-71
2023/03/19 03:31:05;;;;;;;10.25;7.38;;;21.90;68.30;;;;;;6061801;28;89377;-71
2023/03/19 03:34:08;;;;;;;8.80;7.90;;;21.90;68.30;;;;;;6071057;28;89090;-71
2023/03/19 03:37:10;;;;;;;9.20;7.38;;;21.90;68.20;;;;;;6075618;28;89748;-71
2023/03/19 03:40:13;;;;;;;8.15;7.30;;;21.90;68.20;;;;;;6066171;28;88703;-70
2023/03/19 03:43:16;;;;;;;9.23;8.00;;;21.90;68.20;;;;;;6067961;28;89187;-71
2023/03/19 03:46:18;;;;;;;9.07;7.38;;;21.90;68.20;;;;;;6071066;28;89082;-72
2023/03/19 03:49:21;;;;;;;8.75;7.55;;;21.90;68.20;;;;;;6065293;28;88972;-70
2023/03/19 03:52:23;;;;;;;8.07;7.28;;;21.90;68.20;;;;;;6065495;28;89049;-71
2023/03/19 03:55:25;;;;;;;8.10;7.15;;;21.90;68.20;;;;;;6060591;28;89042;-71
2023/03/19 03:58:28;;;;;;;7.90;7.05;;;21.90;68.20;;;;;;6075516;28;88659;-71
2023/03/19 04:01:30;;;;;;;7.97;7.13;;;21.80;68.10;;;;;;6064840;28;89161;-71
2023/03/19 04:04:32;;;;;;;8.32;6.82;;;21.90;68.10;;;;;;6069178;28;89179;-70
2023/03/19 04:07:34;;;;;;;8.23;6.85;;;21.80;68.10;;;;;;6057048;28;90259;-71
2023/03/19 04:10:41;;;;;;;7.57;6.65;;;21.90;68.20;;;;;;6062804;28;89110;-71
2023/03/19 04:13:44;;;;;;;8.02;7.22;;;21.80;68.00;;;;;;6066532;28;89064;-71
2023/03/19 04:16:47;;;;;;;8.70;7.20;;;21.80;67.90;;;;;;6072803;28;89196;-70
2023/03/19 04:19:49;;;;;;;7.57;6.57;;;21.80;67.90;;;;;;6064424;28;89149;-72
2023/03/19 04:22:52;;;;;;;7.70;6.90;;;21.90;68.00;;;;;;6059968;28;88076;-71
2023/03/19 04:25:57;;;;;;;7.55;6.75;;;21.90;68.00;;;;;;6071231;28;89161;-70
2023/03/19 04:29:01;;;;;;;8.75;6.97;;;21.80;67.90;;;;;;6074734;28;88396;-70
2023/03/19 04:32:03;;;;;;;8.18;6.65;;;21.80;67.90;;;;;;6064656;28;89240;-70
2023/03/19 04:35:06;;;;;;;7.18;6.47;;;21.80;67.90;;;;;;6074681;28;89267;-71
2023/03/19 04:38:09;;;;;;;7.25;6.22;;;21.80;67.70;;;;;;6064224;28;89998;-70
2023/03/19 04:41:11;;;;;;;7.53;6.55;;;21.80;67.80;;;;;;6076877;28;89227;-71
2023/03/19 04:44:14;;;;;;;7.05;6.25;;;21.90;67.70;;;;;;6076312;28;89150;-70
2023/03/19 04:47:16;;;;;;;7.30;5.85;;;21.90;67.70;;;;;;6062048;28;89335;-71
2023/03/19 04:50:19;;;;;;;7.00;6.30;;;21.90;67.70;;;;;;6066147;28;89045;-70
2023/03/19 04:53:21;;;;;;;8.15;6.47;;;21.90;67.70;;;;;;6071358;28;89339;-70
2023/03/19 04:56:23;;;;;;;6.93;6.07;;;21.90;67.60;;;;;;6064540;28;88248;-71
2023/03/19 04:59:26;;;;;;;6.70;6.03;;;21.90;67.60;;;;;;6086424;28;88476;-70
2023/03/19 05:02:28;;;;;;;6.22;5.53;;;21.90;67.60;;;;;;6062443;28;89672;-70
2023/03/19 05:05:31;;;;;;;7.05;6.35;;;21.90;67.40;;;;;;6070906;28;89236;-70
2023/03/19 05:08:33;;;;;;;6.75;6.05;;;22.00;67.40;;;;;;6071840;28;88934;-70
2023/03/19 05:11:35;;;;;;;7.05;6.35;;;22.00;67.40;;;;;;6066200;28;89474;-71
2023/03/19 05:14:38;;;;;;;7.10;5.97;;;22.00;67.40;;;;;;6062098;28;89458;-70
2023/03/19 05:17:41;;;;;;;6.60;5.95;;;22.00;67.30;;;;;;6077161;28;89137;-70
2023/03/19 05:20:44;;;;;;;6.18;5.57;;;22.10;67.40;;;;;;6078811;28;89234;-71
2023/03/19 05:23:51;;;;;;;7.10;5.97;;;22.00;67.20;;;;;;6079711;28;89041;-71
2023/03/19 05:26:53;;;;;;;6.50;5.78;;;22.10;67.20;;;;;;6066721;28;89101;-71
2023/03/19 05:29:56;;;;;;;6.20;5.60;;;22.10;67.20;;;;;;6062870;28;87258;-71
2023/03/19 05:32:59;;;;;;;5.80;5.20;;;22.10;67.10;;;;;;6063322;28;89208;-71
2023/03/19 05:36:01;;;;;;;6.05;5.45;;;22.10;67.10;;;;;;6063031;28;89124;-71
2023/03/19 05:39:04;;;;;;;7.03;5.45;;;22.10;67.10;;;;;;6067134;28;90552;-71
2023/03/19 05:42:07;;;;;;;6.40;5.47;;;22.20;67.10;;;;;;6081329;28;89122;-71
2023/03/19 05:45:11;;;;;;;5.65;5.07;;;22.20;67.00;;;;;;6071721;28;88004;-70
2023/03/19 05:48:13;;;;;;;6.07;5.47;;;22.10;66.90;;;;;;6073773;28;89240;-70
2023/03/19 05:51:15;;;;;;;5.90;5.30;;;22.20;67.00;;;;;;6080940;28;87949;-71
2023/03/19 05:54:17;;;;;;;5.82;5.22;;;22.20;67.00;;;;;;6069479;28;89387;-71
2023/03/19 05:57:20;;;;;;;5.72;5.22;;;22.30;67.00;;;;;;6073578;28;88940;-71
2023/03/19 06:00:23;;;;;;;5.90;5.30;;;22.20;66.90;;;;;;6059226;28;88327;-70
2023/03/19 06:03:26;;;;;;;7.03;5.50;;;22.30;66.90;;;;;;6069277;28;89388;-70
2023/03/19 06:06:28;;;;;;;5.78;5.20;;;22.30;66.90;;;;;;6075743;28;89046;-70
2023/03/19 06:09:30;;;;;;;5.65;5.10;;;22.30;66.90;;;;;;6074166;28;90764;-71
2023/03/19 06:12:32;;;;;;;5.78;5.00;;;22.30;66.80;;;;;;6057802;28;89008;-71
2023/03/19 06:15:36;;;;;;;5.90;5.30;;;22.40;66.90;;;;;;6063472;28;89071;-70
2023/03/19 06:18:38;;;;;;;5.40;4.90;;;22.30;66.80;;;;;;6061648;28;88043;-71
2023/03/19 06:21:40;;;;;;;5.80;5.20;;;22.30;66.70;;;;;;6066361;28;88998;-71
2023/03/19 06:24:42;;;;;;;5.88;5.28;;;22.30;66.80;;;;;;6067251;28;88963;-70
2023/03/19 06:27:44;;;;;;;6.50;5.30;;;22.30;66.70;;;;;;6061083;28;89429;-70
2023/03/19 06:30:47;;;;;;;6.82;5.70;;;22.30;66.70;;;;;;6062989;28;88413;-70
2023/03/19 06:33:50;;;;;;;6.25;4.95;;;22.40;66.70;;;;;;6074356;28;89127;-70
2023/03/19 06:36:52;;;;;;;5.72;4.95;;;22.40;66.60;;;;;;6063196;28;89129;-70
2023/03/19 06:39:54;;;;;;;5.60;5.05;;;22.40;66.60;;;;;;6060701;28;89202;-70
2023/03/19 06:42:57;;;;;;;6.00;5.40;;;22.50;66.60;;;;;;6065884;28;88958;-70
2023/03/19 06:46:00;;;;;;;6.35;5.30;;;22.50;66.60;;;;;;6060409;28;89095;-70
2023/03/19 06:49:02;;;;;;;6.38;5.00;;;22.50;66.50;;;;;;6074553;28;89130;-71
2023/03/19 06:52:04;;;;;;;6.00;5.32;;;22.50;66.50;;;;;;6068931;28;89212;-70
2023/03/19 06:55:07;;;;;;;5.72;5.22;;;22.50;66.50;;;;;;6064923;28;88800;-71
2023/03/19 06:58:09;;;;;;;6.88;6.05;;;22.50;66.40;;;;;;6060082;28;89375;-71
2023/03/19 07:01:13;;;;;;;6.00;5.40;;;22.60;66.60;;;;;;6071981;28;88457;-70
2023/03/19 07:04:15;;;;;;;6.55;5.60;;;22.50;66.50;;;;;;6071683;28;89064;-70
2023/03/19 07:07:17;;;;;;;6.20;5.60;;;22.60;66.50;;;;;;6062388;28;89159;-71
2023/03/19 07:10:19;;;;;;;6.10;5.50;;;22.60;66.50;;;;;;6060962;28;90431;-71
2023/03/19 07:13:22;;;;;;;5.90;5.35;;;22.60;66.60;;;;;;6072729;28;89086;-71
2023/03/19 07:16:25;;;;;;;6.78;5.63;;;22.60;66.50;;;;;;6075552;28;89071;-70
2023/03/19 07:19:27;;;;;;;6.68;5.80;;;22.60;66.40;;;;;;6060670;28;89068;-74
2023/03/19 07:22:29;;;;;;;6.75;5.82;;;22.60;66.40;;;;;;6066556;28;89546;-73
2023/03/19 07:25:31;;;;;;;6.45;5.80;;;22.60;66.50;;;;;;6075491;28;89314;-73
2023/03/19 07:28:33;;;;;;;6.88;6.10;;;22.60;66.60;;;;;;6070755;28;89150;-73
2023/03/19 07:31:37;;;;;;;6.45;5.78;;;22.70;66.60;;;;;;6070879;28;88476;-72
2023/03/19 07:34:39;;;;;;;6.93;5.97;;;22.70;66.70;;;;;;6070441;28;89339;-72
2023/03/19 07:37:42;;;;;;;6.80;6.07;;;22.70;66.80;;;;;;6080534;28;90691;-71
2023/03/19 07:40:44;;;;;;;7.03;6.32;;;22.70;66.80;;;;;;6069069;28;90056;-72
2023/03/19 07:43:46;;;;;;;6.97;6.28;;;22.70;66.90;;;;;;6089417;28;88158;-71
2023/03/19 07:46:49;;;;;;;7.18;6.00;;;22.70;66.90;;;;;;6068692;28;87976;-72
2023/03/19 07:49:51;;;;;;;7.55;5.97;;;22.70;66.90;;;;;;6067748;28;89068;-72
2023/03/19 07:52:53;;;;;;;6.60;6.00;;;22.70;67.00;;;;;;6073876;28;89441;-73
2023/03/19 07:55:56;;;;;;;7.15;6.50;;;22.70;67.10;;;;;;6069639;28;88008;-73
2023/03/19 07:58:58;;;;;;;7.13;6.43;;;22.70;67.10;;;;;;6077325;28;88852;-72
2023/03/19 08:02:01;;;;;;;7.13;6.43;;;22.70;67.20;;;;;;6079926;28;88331;-72
2023/03/19 08:05:04;;;;;;;7.15;6.43;;;22.70;67.30;;;;;;6071799;28;89081;-72
2023/03/19 08:08:06;;;;;;;6.90;6.30;;;22.80;67.40;;;;;;6084831;28;89407;-72
2023/03/19 08:11:08;;;;;;;7.63;6.82;;;22.80;67.40;;;;;;6070918;28;90298;-72
2023/03/19 08:14:10;;;;;;;7.22;6.53;;;22.80;67.50;;;;;;6068658;28;88482;-72
2023/03/19 08:17:14;;;;;;;7.05;6.35;;;22.80;67.50;;;;;;6067716;28;88742;-72
2023/03/19 08:20:16;;;;;;;7.28;6.57;;;22.80;67.60;;;;;;6067221;28;89185;-72
2023/03/19 08:23:18;;;;;;;7.20;6.50;;;22.80;67.60;;;;;;6072697;28;89081;-73
2023/03/19 08:26:20;;;;;;;7.50;6.70;;;22.80;67.60;;;;;;6085353;28;89438;-71
2023/03/19 08:29:25;;;;;;;7.95;6.97;;;22.80;68.00;;;;;;6059649;28;89125;-72
2023/03/19 08:32:28;;;;;;;7.90;7.10;;;22.90;68.00;;;;;;6085490;28;88920;-77
2023/03/19 08:35:30;;;;;;;7.55;6.82;;;22.80;67.90;;;;;;6068413;28;89291;-75
2023/03/19 08:38:32;;;;;;;8.48;6.80;;;22.90;67.90;;;;;;6079548;28;89041;-73
2023/03/19 08:41:34;;;;;;;8.07;7.20;;;22.90;67.90;;;;;;6064582;28;90061;-73
2023/03/19 08:44:36;;;;;;;7.40;6.70;;;22.90;67.90;;;;;;6059496;28;89070;-75
2023/03/19 08:47:40;;;;;;;7.43;6.63;;;22.90;67.90;;;;;;6073569;28;89414;-73
2023/03/19 08:50:42;;;;;;;7.68;6.90;;;22.90;67.90;;;;;;6080506;28;91282;-75
2023/03/19 08:53:44;;;;;;;7.70;7.00;;;22.90;67.90;;;;;;6074990;28;89365;-74
2023/03/19 08:56:47;;;;;;;7.63;6.85;;;22.90;67.90;;;;;;6072242;28;87966;-72
2023/03/19 08:59:49;;;;;;;7.35;6.65;;;23.00;68.00;;;;;;6066432;28;89306;-71
2023/03/19 09:02:52;;;;;;;7.53;6.70;;;23.00;68.10;;;;;;6075859;28;88822;-71
2023/03/19 09:05:57;;;;;;;8.30;6.68;;;23.00;68.10;;;;;;6063635;28;89056;-74
2023/03/19 09:08:59;;;;;;;7.25;6.47;;;22.90;68.10;;;;;;6076134;28;89001;-73
2023/03/19 09:12:01;;;;;;;7.38;6.65;;;23.00;68.20;;;;;;6066379;28;89942;-73
2023/03/19 09:15:04;;;;;;;7.50;6.80;;;23.00;68.20;;;;;;6069855;28;88921;-73
2023/03/19 09:18:07;;;;;;;8.13;6.82;;;23.00;68.20;;;;;;6063155;28;89191;-74
2023/03/19 09:21:10;;;;;;;7.38;6.68;;;23.00;68.30;;;;;;6078074;28;89298;-75
2023/03/19 09:24:12;;;;;;;8.07;7.25;;;23.00;68.30;;;;;;6081263;28;89158;-73
2023/03/19 09:27:14;;;;;;;7.55;6.85;;;23.00;68.30;;;;;;6066308;28;88423;-73
2023/03/19 09:30:16;;;;;;;7.70;6.93;;;23.00;68.30;;;;;;6049552;28;90410;-72
2023/03/19 09:33:21;;;;;;;7.50;6.80;;;23.00;68.30;;;;;;6063384;28;88341;-72
2023/03/19 09:36:23;;;;;;;7.43;6.68;;;23.00;68.40;;;;;;6075243;28;89151;-73
2023/03/19 09:39:26;;;;;;;7.38;6.68;;;23.00;68.40;;;;;;6071161;28;89068;-71
2023/03/19 09:42:45;;;;;;;8.25;7.45;;;23.10;68.60;;;;;;6058452;28;90005;-72
2023/03/19 09:45:48;;;;;;;8.70;6.90;;;23.00;70.00;;;;;;6074791;28;89153;-73
2023/03/19 09:48:58;;;;;;;8.68;7.00;;;23.00;71.60;;;;;;6068392;28;89079;-73
2023/03/19 09:52:16;;;;;;;7.97;7.18;;;23.10;72.20;;;;;;6065913;28;87949;-75
2023/03/19 09:55:31;;;;;;;7.70;6.95;;;23.10;72.40;;;;;;6074124;28;89027;-78
2023/03/19 09:58:35;;;;;;;8.23;6.90;;;23.10;72.50;;;;;;6061679;28;89086;-74
2023/03/19 10:01:40;;;;;;;11.32;7.30;;;23.10;72.30;;;;;;6063504;28;89086;-79
2023/03/19 10:05:04;;;;;;;8.40;6.68;;;23.10;72.40;;;;;;6064859;28;88454;-76
2023/03/19 10:08:26;;;;;;;7.13;6.45;;;23.10;72.70;;;;;;6050174;28;89117;-77
2023/03/19 10:11:41;;;;;;;8.52;7.25;;;23.10;72.90;;;;;;6053976;28;87178;-79
2023/03/19 10:15:00;;;;;;;9.68;8.10;;;23.10;73.30;;;;;;6065761;28;90503;-75
2023/03/19 10:18:07;;;;;;;19.00;12.07;;;23.20;73.80;;;;;;6061683;28;88791;-72
2023/03/19 10:21:13;;;;;;;38.13;25.13;;;23.10;74.10;;;;;;6062077;28;90392;-74
2023/03/19 10:24:21;;;;;;;75.18;47.60;;;23.20;77.70;;;;;;6051609;28;89187;-69
2023/03/19 10:27:27;;;;;;;162.68;106.82;;;23.20;76.60;;;;;;6060057;28;89172;-71
2023/03/19 10:30:32;;;;;;;52.55;34.05;;;23.20;76.20;;;;;;6080030;28;89042;-71
2023/03/19 10:33:43;;;;;;;31.13;22.25;;;23.20;73.10;;;;;;6064871;28;88816;-71
2023/03/19 10:36:46;;;;;;;24.98;18.08;;;23.30;71.90;;;;;;6084416;28;88576;-71
2023/03/19 10:39:50;;;;;;;21.33;16.13;;;23.30;71.20;;;;;;6071901;28;87995;-69
2023/03/19 10:43:04;;;;;;;18.33;13.18;;;23.30;70.60;;;;;;6083511;28;89421;-73
2023/03/19 10:46:06;;;;;;;15.07;12.07;;;23.30;71.60;;;;;;6080298;28;89950;-71
2023/03/19 10:49:12;;;;;;;18.10;12.60;;;23.30;71.50;;;;;;6078134;28;89111;-70
2023/03/19 10:52:22;;;;;;;13.82;10.52;;;23.20;68.80;;;;;;6070768;28;89072;-71
2023/03/19 10:55:29;;;;;;;13.15;10.23;;;23.20;68.20;;;;;;6062985;28;89372;-70
2023/03/19 10:58:33;;;;;;;11.55;8.75;;;23.10;67.50;;;;;;6076680;28;89156;-73
2023/03/19 11:01:38;;;;;;;9.82;8.48;;;23.10;66.70;;;;;;6077908;28;89053;-74
2023/03/19 11:04:40;;;;;;;11.82;8.52;;;23.10;67.20;;;;;;6064605;28;89075;-72
2023/03/19 11:07:59;;;;;;;10.98;8.63;;;23.10;67.10;;;;;;6067480;28;88403;-73
2023/03/19 11:11:02;;;;;;;9.00;8.10;;;23.10;67.20;;;;;;6083239;28;88172;-72
2023/03/19 11:14:10;;;;;;;9.55;8.35;;;23.10;66.70;;;;;;6073408;28;89318;-70
2023/03/19 11:17:20;;;;;;;11.63;7.82;;;23.10;66.50;;;;;;6068164;28;90333;-74
2023/03/19 11:20:26;;;;;;;10.73;8.63;;;23.10;66.70;;;;;;6066181;28;88976;-74
2023/03/19 11:23:31;;;;;;;9.40;7.82;;;23.10;66.70;;;;;;6069356;28;88295;-75
2023/03/19 11:26:33;;;;;;;9.65;8.18;;;23.20;67.00;;;;;;6058936;28;89027;-75
2023/03/19 11:29:40;;;;;;;9.98;8.25;;;23.10;66.70;;;;;;6061992;28;89552;-74
2023/03/19 11:33:13;;;;;;;8.35;7.55;;;23.20;66.70;;;;;;6072220;28;89146;-77
2023/03/19 11:36:23;;;;;;;8.77;7.90;;;23.20;66.70;;;;;;6075173;28;89323;-78
2023/03/19 11:39:31;;;;;;;8.52;7.53;;;23.20;66.60;;;;;;6061825;28;88401;-76
2023/03/19 11:42:52;;;;;;;8.55;7.75;;;23.20;66.70;;;;;;6060803;28;89389;-75
2023/03/19 11:46:05;;;;;;;8.35;7.50;;;23.20;66.90;;;;;;6059409;28;89051;-73
2023/03/19 11:49:33;;;;;;;7.93;7.13;;;23.20;67.10;;;;;;6062895;28;90054;-74
2023/03/19 11:52:41;;;;;;;8.23;7.43;;;23.20;67.10;;;;;;6063545;28;89079;-75
2023/03/19 11:55:51;;;;;;;8.50;7.60;;;23.30;66.90;;;;;;6063503;28;87911;-74
2023/03/19 11:59:29;;;;;;;8.10;7.30;;;23.20;66.90;;;;;;6063964;28;89219;-72
2023/03/19 12:03:12;;;;;;;8.15;7.30;;;23.20;67.00;;;;;;5986205;29;89037;-74
2023/03/19 12:06:24;;;;;;;8.15;7.22;;;23.30;66.90;;;;;;6073362;28;88763;-74
2023/03/19 12:09:35;;;;;;;8.93;7.95;;;23.20;66.90;;;;;;6068349;28;88917;-74
2023/03/19 12:12:46;;;;;;;10.68;7.70;;;23.30;67.20;;;;;;6064125;28;88365;-75
2023/03/19 12:15:59;;;;;;;12.43;7.82;;;23.20;67.60;;;;;;6070868;28;88736;-75
2023/03/19 12:19:21;;;;;;;11.63;7.57;;;23.20;67.90;;;;;;6063064;28;89280;-76
2023/03/19 12:22:35;;;;;;;9.88;7.85;;;23.30;67.90;;;;;;6064273;28;90294;-75
2023/03/19 12:25:58;;;;;;;8.35;7.32;;;23.20;67.90;;;;;;6063004;28;89308;-76
2023/03/19 12:29:08;;;;;;;9.25;7.53;;;23.30;68.00;;;;;;6047800;28;88048;-74
2023/03/19 12:32:23;;;;;;;10.73;7.30;;;23.30;68.30;;;;;;6069436;28;89213;-75
2023/03/19 12:35:31;;;;;;;10.07;7.55;;;23.20;68.30;;;;;;6064619;28;89508;-72
2023/03/19 12:38:39;;;;;;;8.80;7.30;;;23.20;68.50;;;;;;6063385;28;89071;-72
2023/03/19 12:41:43;;;;;;;9.77;7.32;;;23.20;68.50;;;;;;6066789;28;89302;-72
2023/03/19 12:45:12;;;;;;;11.25;7.05;;;23.30;68.60;;;;;;6074199;28;90268;-73
2023/03/19 12:48:21;;;;;;;8.73;6.82;;;23.30;68.40;;;;;;6070569;28;89506;-74
2023/03/19 12:51:28;;;;;;;9.57;6.68;;;23.30;68.40;;;;;;6072088;28;89205;-74
2023/03/19 12:54:36;;;;;;;10.02;6.72;;;23.30;68.30;;;;;;6068487;28;90158;-75
2023/03/19 12:57:44;;;;;;;7.57;6.40;;;23.30;68.30;;;;;;6068867;28;88196;-75
2023/03/19 13:00:54;;;;;;;7.30;6.20;;;23.30;68.30;;;;;;6073786;28;88987;-74
2023/03/19 13:04:02;;;;;;;9.52;6.70;;;23.20;68.10;;;;;;6075910;28;89253;-77
2023/03/19 13:07:08;;;;;;;6.88;6.10;;;23.20;68.00;;;;;;6086483;28;89184;-77
2023/03/19 13:10:17;;;;;;;8.23;6.50;;;23.30;67.90;;;;;;6066828;28;89483;-75
2023/03/19 13:13:32;;;;;;;8.60;6.88;;;23.20;67.70;;;;;;6062732;28;89610;-75
2023/03/19 13:16:44;;;;;;;7.68;6.38;;;23.20;67.60;;;;;;6064045;28;88424;-76
2023/03/19 13:19:50;;;;;;;8.60;6.60;;;23.20;67.40;;;;;;6063486;28;88837;-75
2023/03/19 13:22:55;;;;;;;7.32;6.40;;;23.20;67.30;;;;;;6063886;28;89107;-76
2023/03/19 13:25:59;;;;;;;7.68;6.47;;;23.20;67.20;;;;;;6064277;28;90253;-76
2023/03/19 13:29:06;;;;;;;7.60;6.53;;;23.20;67.10;;;;;;6072939;28;89081;-76
2023/03/19 13:32:26;;;;;;;7.55;6.05;;;23.20;66.90;;;;;;6057132;28;90408;-75
2023/03/19 13:35:35;;;;;;;8.32;6.78;;;23.20;66.60;;;;;;6063490;28;89015;-73
2023/03/19 13:38:41;;;;;;;7.72;6.93;;;23.20;66.10;;;;;;6070587;28;89051;-74
2023/03/19 13:41:53;;;;;;;7.85;7.05;;;23.10;65.20;;;;;;6072131;28;89151;-73
2023/03/19 13:45:01;;;;;;;8.23;6.63;;;23.20;64.80;;;;;;6060958;28;89159;-74
2023/03/19 13:48:34;;;;;;;7.63;6.40;;;23.10;64.50;;;;;;6068817;28;88786;-75
2023/03/19 13:51:36;;;;;;;6.65;6.05;;;23.10;64.40;;;;;;6055727;28;89061;-72
2023/03/19 13:54:40;;;;;;;6.63;6.03;;;23.20;64.70;;;;;;6061132;28;88729;-74
2023/03/19 13:58:00;;;;;;;6.60;5.65;;;23.10;64.90;;;;;;6076139;28;89737;-76
2023/03/19 14:01:03;;;;;;;8.05;5.68;;;23.10;65.30;;;;;;6067940;28;89843;-74
2023/03/19 14:04:15;;;;;;;6.50;5.47;;;23.10;65.50;;;;;;6058111;28;89032;-75
2023/03/19 14:07:20;;;;;;;6.32;5.40;;;23.10;65.80;;;;;;6058278;28;89350;-75
2023/03/19 14:10:26;;;;;;;6.00;5.40;;;23.10;65.90;;;;;;6065066;28;89048;-74
2023/03/19 14:13:32;;;;;;;7.03;5.80;;;23.10;66.20;;;;;;6059050;28;88549;-76
2023/03/19 14:16:37;;;;;;;6.28;5.25;;;23.20;67.30;;;;;;6063217;28;88981;-73
2023/03/19 14:19:42;;;;;;;6.45;5.82;;;23.20;67.50;;;;;;6068579;28;88344;-74
2023/03/19 14:22:56;;;;;;;6.90;5.40;;;23.20;68.60;;;;;;6059629;28;89350;-73
2023/03/19 14:26:13;;;;;;;6.75;5.35;;;23.40;67.90;;;;;;6054515;28;89015;-73
2023/03/19 14:29:15;;;;;;;8.27;5.65;;;23.70;66.90;;;;;;6074906;28;87953;-76
2023/03/19 14:32:21;;;;;;;6.43;5.15;;;23.90;67.00;;;;;;6062975;28;89100;-77
2023/03/19 14:35:27;;;;;;;7.38;5.25;;;24.00;66.10;;;;;;6059218;28;89077;-76
2023/03/19 14:38:36;;;;;;;6.50;5.28;;;24.00;66.30;;;;;;6061998;28;87224;-74
2023/03/19 14:41:43;;;;;;;6.80;5.22;;;23.90;65.90;;;;;;6060494;28;88167;-74
2023/03/19 14:45:16;;;;;;;6.75;5.22;;;23.90;66.10;;;;;;6060206;28;89303;-75
2023/03/19 14:48:36;;;;;;;5.72;4.90;;;23.80;66.20;;;;;;5983442;29;89151;-75
2023/03/19 14:52:03;;;;;;;5.40;4.90;;;23.70;66.40;;;;;;5978354;29;88391;-74
2023/03/19 14:55:12;;;;;;;6.03;5.28;;;23.70;66.70;;;;;;5988374;29;89539;-74
2023/03/19 14:58:15;;;;;;;6.30;5.03;;;23.60;66.80;;;;;;5985552;29;89147;-75
2023/03/19 15:01:18;;;;;;;5.70;5.10;;;23.60;67.00;;;;;;5980592;29;88996;-74
2023/03/19 15:04:23;;;;;;;6.85;5.05;;;23.60;67.40;;;;;;5966564;29;87188;-76
2023/03/19 15:07:30;;;;;;;5.45;4.72;;;23.50;67.40;;;;;;5985197;29;89037;-75
2023/03/19 15:10:41;;;;;;;7.07;5.28;;;23.40;67.80;;;;;;5988693;29;89078;-75
2023/03/19 15:14:02;;;;;;;6.80;4.82;;;23.40;68.10;;;;;;5989109;29;89245;-75
2023/03/19 15:17:13;;;;;;;5.18;4.60;;;23.40;68.30;;;;;;5979359;29;89141;-76
2023/03/19 15:20:19;;;;;;;6.63;4.90;;;23.40;68.50;;;;;;5984497;29;89045;-76
2023/03/19 15:23:26;;;;;;;6.50;4.82;;;23.40;68.70;;;;;;5984247;29;87266;-75
2023/03/19 15:26:33;;;;;;;5.75;4.65;;;23.30;68.60;;;;;;6060608;28;89288;-75
2023/03/19 15:29:36;;;;;;;5.60;4.70;;;23.30;69.40;;;;;;6060217;28;88866;-73
2023/03/19 15:32:41;;;;;;;5.18;4.68;;;23.30;68.60;;;;;;6058651;28;89163;-73
2023/03/19 15:35:48;;;;;;;4.68;4.18;;;23.30;68.60;;;;;;6060275;28;88379;-77
2023/03/19 15:38:57;;;;;;;5.43;4.53;;;23.30;68.70;;;;;;6059570;28;88077;-74
2023/03/19 15:41:59;;;;;;;6.32;4.55;;;23.30;68.60;;;;;;6061998;28;89092;-76
2023/03/19 15:45:06;;;;;;;4.82;4.30;;;23.30;68.70;;;;;;6050963;28;89125;-75
2023/03/19 15:48:14;;;;;;;5.20;4.47;;;23.30;68.80;;;;;;6080387;28;88356;-75
2023/03/19 15:51:19;;;;;;;4.97;4.18;;;23.20;68.80;;;;;;6061423;28;89162;-75
2023/03/19 15:54:25;;;;;;;5.10;4.55;;;23.20;69.00;;;;;;6077890;28;88419;-75
2023/03/19 15:57:29;;;;;;;4.45;3.92;;;23.20;69.10;;;;;;6066795;28;88026;-75
2023/03/19 16:00:32;;;;;;;4.60;4.15;;;23.20;69.30;;;;;;6072932;28;86982;-75